createdAt,value
2019-04-29T00:00:58.465Z,24.27
2019-04-29T00:04:02.784Z,25.23
2019-04-29T00:07:07.257Z,24.63
2019-04-29T00:10:13.349Z,24.97
2019-04-29T00:13:17.933Z,25.10
2019-04-29T00:16:56.250Z,22.57
2019-04-29T00:20:18.596Z,24.83
2019-04-29T00:23:22.920Z,23.17
2019-04-29T00:26:27.325Z,23.10
2019-04-29T00:29:31.644Z,25.07
2019-04-29T00:32:35.941Z,25.70
2019-04-29T00:35:40.315Z,23.43
2019-04-29T00:39:11.768Z,24.37
2019-04-29T00:42:23.784Z,24.73
2019-04-29T00:45:28.110Z,22.37
2019-04-29T00:48:32.414Z,23.63
2019-04-29T00:51:36.761Z,24.43
2019-04-29T00:54:46.158Z,23.60
2019-04-29T00:57:50.476Z,24.33
2019-04-29T01:00:54.789Z,24.50
2019-04-29T01:03:59.112Z,23.87
2019-04-29T01:07:03.702Z,22.80
2019-04-29T01:10:08.312Z,23.13
2019-04-29T01:13:12.604Z,25.27
2019-04-29T01:16:16.920Z,25.00
2019-04-29T01:19:21.240Z,24.63
2019-04-29T01:22:25.724Z,23.73
2019-04-29T01:25:30.023Z,24.13
2019-04-29T01:28:49.313Z,23.80
2019-04-29T01:31:52.447Z,24.87
2019-04-29T01:34:56.822Z,22.60
2019-04-29T01:38:01.136Z,24.53
2019-04-29T01:41:12.125Z,23.57
2019-04-29T01:44:17.059Z,21.90
2019-04-29T01:47:21.349Z,21.77
2019-04-29T01:50:25.639Z,22.97
2019-04-29T01:53:29.971Z,21.33
2019-04-29T01:56:34.324Z,20.90
2019-04-29T01:59:38.639Z,19.83
2019-04-29T02:02:42.945Z,21.30
2019-04-29T02:05:47.229Z,20.90
2019-04-29T02:08:53.322Z,21.70
2019-04-29T02:11:57.639Z,21.20
2019-04-29T02:15:01.938Z,21.43
2019-04-29T02:18:06.222Z,21.60
2019-04-29T02:21:10.543Z,20.70
2019-04-29T02:24:17.375Z,20.80
2019-04-29T02:27:21.643Z,20.43
2019-04-29T02:30:46.928Z,21.97
2019-04-29T02:33:51.182Z,21.27
2019-04-29T02:36:55.878Z,21.33
2019-04-29T02:40:06.447Z,20.17
2019-04-29T02:43:15.891Z,18.60
2019-04-29T02:46:20.221Z,21.70
2019-04-29T02:49:24.486Z,20.73
2019-04-29T02:52:28.823Z,20.17
2019-04-29T02:55:43.500Z,19.87
2019-04-29T02:58:55.071Z,20.37
2019-04-29T03:02:07.971Z,19.90
2019-04-29T03:05:21.662Z,19.03
2019-04-29T03:08:25.948Z,20.23
2019-04-29T03:11:30.216Z,19.73
2019-04-29T03:14:34.988Z,19.07
2019-04-29T03:17:39.426Z,19.70
2019-04-29T03:21:11.446Z,18.73
2019-04-29T03:24:15.828Z,19.20
2019-04-29T03:27:20.134Z,18.07
2019-04-29T03:30:24.407Z,19.37
2019-04-29T03:33:28.730Z,18.63
2019-04-29T03:36:33.011Z,19.23
2019-04-29T03:39:37.291Z,18.77
2019-04-29T03:42:41.573Z,19.90
2019-04-29T03:45:45.874Z,19.30
2019-04-29T03:48:50.140Z,18.60
2019-04-29T03:51:54.431Z,19.83
2019-04-29T03:54:58.706Z,18.67
2019-04-29T03:58:02.986Z,16.67
2019-04-29T04:01:21.667Z,18.13
2019-04-29T04:04:43.627Z,18.40
2019-04-29T04:07:54.549Z,19.17
2019-04-29T04:10:58.816Z,19.47
2019-04-29T04:14:03.110Z,18.73
2019-04-29T04:17:41.539Z,16.97
2019-04-29T04:20:45.884Z,17.87
2019-04-29T04:23:50.184Z,17.13
2019-04-29T04:26:54.565Z,17.17
2019-04-29T04:29:58.834Z,17.73
2019-04-29T04:33:03.121Z,18.07
2019-04-29T04:36:07.409Z,17.17
2019-04-29T04:39:11.679Z,18.40
2019-04-29T04:42:15.940Z,19.00
2019-04-29T04:45:20.226Z,18.57
2019-04-29T04:48:24.510Z,19.07
2019-04-29T04:51:28.773Z,18.83
2019-04-29T04:54:33.028Z,18.50
2019-04-29T04:57:37.307Z,18.07
2019-04-29T05:00:41.803Z,18.60
2019-04-29T05:03:46.113Z,19.17
2019-04-29T05:06:50.369Z,18.90
2019-04-29T05:09:54.639Z,18.87
2019-04-29T05:12:58.926Z,18.53
2019-04-29T05:16:03.211Z,18.60
2019-04-29T05:19:07.503Z,18.47
2019-04-29T05:22:11.791Z,17.37
2019-04-29T05:25:16.067Z,17.40
2019-04-29T05:28:20.351Z,18.93
2019-04-29T05:31:24.624Z,19.73
2019-04-29T05:34:30.525Z,20.60
2019-04-29T05:37:45.541Z,18.03
2019-04-29T05:40:51.300Z,19.63
2019-04-29T05:44:19.033Z,20.07
2019-04-29T05:47:41.485Z,20.30
2019-04-29T05:50:52.206Z,19.33
2019-04-29T05:53:58.771Z,21.63
2019-04-29T05:57:03.048Z,21.53
2019-04-29T06:00:07.910Z,21.83
2019-04-29T06:03:12.382Z,19.57
2019-04-29T06:06:16.693Z,19.67
2019-04-29T06:09:20.990Z,19.93
2019-04-29T06:12:25.288Z,18.97
2019-04-29T06:15:29.570Z,19.57
2019-04-29T06:18:33.863Z,18.27
2019-04-29T06:21:38.167Z,20.23
2019-04-29T06:24:42.451Z,19.30
2019-04-29T06:27:46.746Z,19.03
2019-04-29T06:30:51.948Z,19.20
2019-04-29T06:33:56.276Z,20.50
2019-04-29T06:37:00.564Z,19.23
2019-04-29T06:40:05.148Z,19.33
2019-04-29T06:43:09.448Z,20.47
2019-04-29T06:46:13.735Z,20.10
2019-04-29T06:49:18.025Z,20.33
2019-04-29T06:52:22.343Z,20.27
2019-04-29T06:55:26.642Z,21.73
2019-04-29T06:58:32.505Z,19.97
2019-04-29T07:01:37.489Z,19.87
2019-04-29T07:04:42.811Z,19.17
2019-04-29T07:07:47.178Z,20.30
2019-04-29T07:10:51.472Z,21.43
2019-04-29T07:13:57.511Z,20.77
2019-04-29T07:17:05.566Z,21.10
2019-04-29T07:20:08.032Z,21.77
2019-04-29T07:23:12.310Z,22.63
2019-04-29T07:26:16.632Z,22.90
2019-04-29T07:29:21.373Z,24.67
2019-04-29T07:32:26.911Z,22.77
2019-04-29T07:35:31.202Z,23.03
2019-04-29T07:38:41.545Z,23.23
2019-04-29T07:41:41.537Z,24.37
2019-04-29T07:45:04.782Z,24.57
2019-04-29T07:48:09.095Z,23.63
2019-04-29T07:51:13.412Z,23.00
2019-04-29T07:54:17.800Z,23.90
2019-04-29T07:57:22.137Z,23.03
2019-04-29T08:00:34.022Z,23.13
2019-04-29T08:03:38.321Z,21.67
2019-04-29T08:06:44.881Z,22.43
2019-04-29T08:09:49.485Z,22.00
2019-04-29T08:12:55.359Z,22.33
2019-04-29T08:15:59.640Z,22.87
2019-04-29T08:19:05.038Z,22.03
2019-04-29T08:25:35.001Z,23.80
2019-04-29T08:28:42.540Z,24.27
2019-04-29T08:31:51.883Z,24.27
2019-04-29T08:35:03.101Z,25.13
2019-04-29T08:38:05.666Z,26.67
2019-04-29T08:41:10.442Z,26.10
2019-04-29T08:44:32.414Z,25.27
2019-04-29T08:47:39.393Z,26.63
2019-04-29T08:50:46.686Z,26.30
2019-04-29T08:53:52.879Z,27.80
2019-04-29T08:57:03.149Z,29.07
2019-04-29T09:00:04.112Z,29.63
2019-04-29T09:03:08.569Z,30.67
2019-04-29T09:06:16.094Z,32.73
2019-04-29T09:09:29.192Z,32.10
2019-04-29T09:12:29.428Z,32.93
2019-04-29T09:15:33.650Z,32.53
2019-04-29T09:18:39.910Z,32.73
2019-04-29T09:21:46.207Z,32.80
2019-04-29T09:25:26.311Z,33.33
2019-04-29T09:28:33.240Z,32.93
2019-04-29T09:31:37.972Z,31.93
2019-04-29T09:34:42.459Z,32.43
2019-04-29T09:37:47.150Z,32.87
2019-04-29T09:41:10.849Z,33.30
2019-04-29T09:44:49.151Z,33.73
2019-04-29T09:47:53.532Z,33.30
2019-04-29T09:50:58.018Z,32.40
2019-04-29T09:54:05.331Z,33.13
2019-04-29T09:57:09.606Z,30.93
2019-04-29T10:00:32.274Z,30.77
2019-04-29T10:04:05.135Z,30.30
2019-04-29T10:10:43.133Z,31.60
2019-04-29T10:13:47.458Z,30.93
2019-04-29T10:17:11.179Z,29.67
2019-04-29T10:20:18.887Z,27.13
2019-04-29T10:23:23.467Z,25.47
2019-04-29T10:26:27.933Z,23.60
2019-04-29T10:29:33.053Z,17.70
2019-04-29T10:32:42.405Z,15.50
2019-04-29T10:35:45.097Z,15.50
2019-04-29T10:38:52.365Z,14.70
2019-04-29T10:42:03.524Z,14.33
2019-04-29T10:49:03.610Z,13.87
2019-04-29T10:52:07.284Z,13.23
2019-04-29T10:55:11.760Z,14.33
2019-04-29T10:58:16.542Z,15.60
2019-04-29T11:02:14.408Z,13.37
2019-04-29T11:05:36.598Z,13.10
2019-04-29T11:08:50.498Z,12.90
2019-04-29T11:11:54.733Z,13.17
2019-04-29T11:15:01.601Z,13.13
2019-04-29T11:18:06.566Z,13.53
2019-04-29T11:21:12.765Z,13.27
2019-04-29T11:24:25.975Z,13.57
2019-04-29T11:27:35.715Z,13.70
2019-04-29T11:30:40.707Z,13.50
2019-04-29T11:33:58.355Z,13.33
2019-04-29T11:37:02.805Z,12.83
2019-04-29T11:40:08.859Z,13.37
2019-04-29T11:43:15.451Z,12.77
2019-04-29T11:46:23.776Z,12.60
2019-04-29T11:49:36.180Z,13.03
2019-04-29T11:52:40.519Z,12.87
2019-04-29T11:55:46.429Z,13.47
2019-04-29T11:59:16.150Z,12.37
2019-04-29T12:02:46.246Z,11.43
2019-04-29T12:05:55.367Z,11.27
2019-04-29T12:08:59.780Z,11.80
2019-04-29T12:12:07.791Z,11.13
2019-04-29T12:15:29.450Z,10.77
2019-04-29T12:18:40.534Z,10.63
2019-04-29T12:21:45.627Z,10.47
2019-04-29T12:24:49.980Z,9.60
2019-04-29T12:28:01.506Z,9.97
2019-04-29T12:31:05.737Z,10.03
2019-04-29T12:34:37.876Z,9.77
2019-04-29T12:38:05.959Z,10.80
2019-04-29T12:41:48.234Z,10.17
2019-04-29T12:44:56.815Z,10.50
2019-04-29T12:48:01.085Z,9.80
2019-04-29T12:51:05.402Z,8.93
2019-04-29T12:54:09.706Z,10.30
2019-04-29T12:57:14.123Z,10.60
2019-04-29T13:00:23.635Z,10.40
2019-04-29T13:03:50.530Z,10.43
2019-04-29T13:07:06.932Z,10.70
2019-04-29T13:10:25.855Z,11.23
2019-04-29T13:13:30.201Z,10.30
2019-04-29T13:16:59.435Z,10.17
2019-04-29T13:20:07.225Z,10.70
2019-04-29T13:23:19.311Z,10.10
2019-04-29T13:26:27.829Z,9.73
2019-04-29T13:29:27.207Z,9.73
2019-04-29T13:32:31.528Z,9.13
2019-04-29T13:35:36.958Z,9.13
2019-04-29T13:38:41.370Z,8.73
2019-04-29T13:41:56.922Z,9.27
2019-04-29T13:45:06.114Z,8.43
2019-04-29T13:48:09.043Z,8.87
2019-04-29T13:51:34.656Z,8.00
2019-04-29T13:54:23.150Z,7.63
2019-04-29T13:57:27.492Z,6.67
2019-04-29T14:01:01.731Z,6.30
2019-04-29T14:04:24.205Z,6.13
2019-04-29T14:07:23.531Z,5.50
2019-04-29T14:10:27.872Z,5.67
2019-04-29T14:13:32.176Z,5.17
2019-04-29T14:16:36.471Z,4.70
2019-04-29T14:19:42.490Z,4.70
2019-04-29T14:22:46.955Z,4.20
2019-04-29T14:25:52.659Z,3.80
2019-04-29T14:28:56.949Z,3.63
2019-04-29T14:32:01.548Z,3.57
2019-04-29T14:35:15.492Z,3.40
2019-04-29T14:38:23.945Z,3.00
2019-04-29T14:41:28.396Z,3.63
2019-04-29T14:44:46.261Z,3.13
2019-04-29T14:48:08.026Z,2.90
2019-04-29T14:51:12.426Z,2.83
2019-04-29T14:54:16.792Z,2.60
2019-04-29T14:57:22.162Z,2.70
2019-04-29T15:00:46.035Z,2.50
2019-04-29T15:03:53.830Z,3.20
2019-04-29T15:07:07.423Z,2.63
2019-04-29T15:10:13.819Z,2.50
2019-04-29T15:13:21.089Z,2.50
2019-04-29T15:16:36.050Z,2.60
2019-04-29T15:20:05.122Z,2.40
2019-04-29T15:23:09.408Z,2.40
2019-04-29T15:26:13.730Z,2.57
2019-04-29T15:29:18.076Z,2.47
2019-04-29T15:32:23.739Z,2.30
2019-04-29T15:35:28.114Z,2.50
2019-04-29T15:38:32.570Z,2.60
2019-04-29T15:41:37.197Z,2.47
2019-04-29T15:44:41.710Z,2.50
2019-04-29T15:47:47.121Z,2.87
2019-04-29T15:50:51.482Z,2.80
2019-04-29T15:53:55.834Z,2.73
2019-04-29T15:57:03.759Z,3.10
2019-04-29T16:00:20.482Z,3.17
2019-04-29T16:03:17.857Z,2.97
2019-04-29T16:06:45.326Z,3.10
2019-04-29T16:10:14.511Z,3.07
2019-04-29T16:13:22.469Z,3.23
2019-04-29T16:16:24.015Z,3.17
2019-04-29T16:19:28.318Z,3.10
2019-04-29T16:22:38.560Z,2.97
2019-04-29T16:25:40.793Z,2.77
2019-04-29T16:28:44.915Z,3.27
2019-04-29T16:31:49.252Z,2.90
2019-04-29T16:34:53.529Z,3.10
2019-04-29T16:37:57.799Z,3.20
2019-04-29T16:41:19.125Z,3.27
2019-04-29T16:47:24.779Z,2.90
2019-04-29T16:50:29.223Z,3.20
2019-04-29T16:53:33.597Z,2.87
2019-04-29T16:56:37.885Z,2.50
2019-04-29T16:59:42.195Z,2.30
2019-04-29T17:02:46.495Z,2.40
2019-04-29T17:05:50.784Z,2.27
2019-04-29T17:09:22.797Z,2.10
2019-04-29T17:12:29.287Z,2.03
2019-04-29T17:15:30.114Z,2.33
2019-04-29T17:18:34.363Z,2.00
2019-04-29T17:21:38.644Z,2.20
2019-04-29T17:24:42.938Z,2.23
2019-04-29T17:28:12.098Z,2.00
2019-04-29T17:31:40.680Z,2.17
2019-04-29T17:34:58.965Z,2.10
2019-04-29T17:35:15.895Z,3.40
2019-04-29T17:37:51.422Z,2.00
2019-04-29T17:40:55.718Z,1.97
2019-04-29T17:44:14.666Z,2.00
2019-04-29T17:47:46.704Z,1.87
2019-04-29T17:50:52.465Z,2.17
2019-04-29T17:54:00.061Z,2.10
2019-04-29T17:57:31.223Z,2.00
2019-04-29T18:00:58.516Z,1.63
2019-04-29T18:04:11.759Z,1.80
2019-04-29T18:07:21.586Z,1.73
2019-04-29T18:10:30.877Z,1.67
2019-04-29T18:13:35.457Z,1.77
2019-04-29T18:16:43.596Z,1.70
2019-04-29T18:20:08.537Z,1.83
2019-04-29T18:23:28.400Z,1.90
2019-04-29T18:26:37.116Z,1.90
2019-04-29T18:29:42.998Z,1.83
2019-04-29T18:32:47.798Z,2.00
2019-04-29T18:36:02.050Z,1.83
2019-04-29T18:38:58.194Z,1.70
2019-04-29T18:42:03.169Z,2.50
2019-04-29T18:45:08.826Z,2.57
2019-04-29T18:48:16.977Z,1.97
2019-04-29T18:51:20.794Z,2.13
2019-04-29T18:54:27.044Z,1.70
2019-04-29T18:57:31.509Z,2.27
2019-04-29T19:00:35.911Z,2.50
2019-04-29T19:03:52.845Z,2.07
2019-04-29T19:07:02.144Z,2.50
2019-04-29T19:10:09.009Z,2.27
2019-04-29T19:13:12.731Z,2.27
2019-04-29T19:16:21.489Z,2.23
2019-04-29T19:19:22.049Z,2.67
2019-04-29T19:22:26.420Z,2.50
2019-04-29T19:25:31.063Z,2.30
2019-04-29T19:28:38.110Z,2.17
2019-04-29T19:31:46.712Z,2.27
2019-04-29T19:34:50.149Z,2.37
2019-04-29T19:37:54.947Z,2.33
2019-04-29T19:40:59.462Z,2.60
2019-04-29T19:44:05.819Z,2.43
2019-04-29T19:47:10.973Z,2.27
2019-04-29T19:50:19.431Z,2.80
2019-04-29T19:53:22.568Z,2.30
2019-04-29T19:56:27.319Z,2.60
2019-04-29T19:59:36.167Z,2.97
2019-04-29T20:02:45.251Z,3.47
2019-04-29T20:06:07.962Z,2.77
2019-04-29T20:09:08.477Z,2.60
2019-04-29T20:12:12.570Z,3.93
2019-04-29T20:15:16.447Z,3.20
2019-04-29T20:18:40.178Z,3.00
2019-04-29T20:21:41.578Z,2.97
2019-04-29T20:24:49.302Z,2.63
2019-04-29T20:28:04.796Z,2.60
2019-04-29T20:31:15.069Z,3.00
2019-04-29T20:34:06.034Z,2.87
2019-04-29T20:37:10.815Z,3.23
2019-04-29T20:40:16.478Z,2.90
2019-04-29T20:43:26.125Z,3.20
2019-04-29T20:46:39.874Z,3.10
2019-04-29T20:49:36.125Z,3.10
2019-04-29T20:52:58.956Z,3.30
2019-04-29T20:56:09.564Z,3.07
2019-04-29T20:59:11.369Z,3.03
2019-04-29T21:02:13.146Z,3.00
2019-04-29T21:05:23.050Z,3.30
2019-04-29T21:08:25.748Z,3.70
2019-04-29T21:11:51.733Z,4.43
2019-04-29T21:14:59.441Z,4.37
2019-04-29T21:18:05.361Z,4.10
2019-04-29T21:21:09.732Z,3.97
2019-04-29T21:24:18.448Z,4.17
2019-04-29T21:27:22.606Z,4.10
2019-04-29T21:30:34.899Z,3.80
2019-04-29T21:33:32.005Z,4.03
2019-04-29T21:36:55.339Z,4.10
2019-04-29T21:40:18.983Z,4.17
2019-04-29T21:43:26.171Z,4.40
2019-04-29T21:46:30.490Z,4.13
2019-04-29T21:49:44.867Z,4.43
2019-04-29T21:52:40.792Z,3.97
2019-04-29T21:55:45.740Z,4.73
2019-04-29T21:58:50.140Z,4.43
2019-04-29T22:01:56.199Z,4.53
2019-04-29T22:05:00.808Z,4.00
2019-04-29T22:08:06.391Z,4.43
2019-04-29T22:11:10.750Z,4.53
2019-04-29T22:14:15.581Z,4.27
2019-04-29T22:17:19.897Z,4.50
2019-04-29T22:20:25.877Z,4.73
2019-04-29T22:23:30.216Z,4.40
2019-04-29T22:26:35.006Z,5.70
2019-04-29T22:29:39.471Z,5.00
2019-04-29T22:32:46.859Z,5.47
2019-04-29T22:35:49.749Z,5.70
2019-04-29T22:38:55.771Z,5.67
2019-04-29T22:42:06.787Z,5.57
2019-04-29T22:45:11.282Z,5.33
2019-04-29T22:48:19.593Z,5.97
2019-04-29T22:51:21.545Z,5.90
2019-04-29T22:54:25.880Z,5.63
2019-04-29T22:57:31.609Z,6.50
2019-04-29T23:00:36.311Z,5.80
2019-04-29T23:03:40.581Z,5.83
2019-04-29T23:06:48.004Z,5.73
2019-04-29T23:09:50.839Z,5.57
2019-04-29T23:12:57.464Z,6.43
2019-04-29T23:16:02.234Z,5.60
2019-04-29T23:19:09.787Z,6.40
2019-04-29T23:22:34.245Z,6.10
2019-04-29T23:25:49.776Z,5.73
2019-04-29T23:28:55.454Z,6.13
2019-04-29T23:32:04.778Z,5.77
2019-04-29T23:35:09.707Z,5.93
2019-04-29T23:38:13.087Z,6.40
2019-04-29T23:41:17.373Z,5.77
2019-04-29T23:44:21.632Z,5.80
2019-04-29T23:47:25.916Z,5.47
2019-04-29T23:50:30.186Z,5.40
2019-04-29T23:53:35.137Z,5.47
2019-04-29T23:56:58.434Z,5.23
